createdAt,value
2022-10-09T00:01:03.733Z,1020.09
2022-10-09T00:11:03.777Z,1019.99
2022-10-09T00:21:04.047Z,1019.94
2022-10-09T00:31:04.153Z,1019.81
2022-10-09T00:41:04.313Z,1019.68
2022-10-09T00:51:04.334Z,1019.61
2022-10-09T01:01:04.690Z,1019.59
2022-10-09T01:11:04.802Z,1019.48
2022-10-09T01:21:05.100Z,1019.32
2022-10-09T01:31:05.184Z,1019.26
2022-10-09T01:41:05.367Z,1019.09
2022-10-09T01:51:05.391Z,1018.97
2022-10-09T02:01:05.718Z,1018.90
2022-10-09T02:11:05.744Z,1018.90
2022-10-09T02:21:06.060Z,1018.86
2022-10-09T02:31:06.125Z,1018.92
2022-10-09T02:41:06.298Z,1018.83
2022-10-09T02:51:06.324Z,1018.70
2022-10-09T03:01:06.666Z,1018.63
2022-10-09T03:11:06.686Z,1018.52
2022-10-09T03:21:07.014Z,1018.59
2022-10-09T03:31:07.146Z,1018.55
2022-10-09T03:41:07.248Z,1018.59
2022-10-09T03:51:07.266Z,1018.51
2022-10-09T04:01:07.651Z,1018.49
2022-10-09T04:11:07.707Z,1018.42
2022-10-09T04:21:08.044Z,1018.41
2022-10-09T04:31:08.139Z,1018.37
2022-10-09T04:41:08.304Z,1018.35
2022-10-09T04:51:08.331Z,1018.26
2022-10-09T05:01:08.723Z,1018.22
2022-10-09T05:11:08.777Z,1018.16
2022-10-09T05:21:09.096Z,1018.13
2022-10-09T05:31:09.115Z,1018.19
2022-10-09T05:41:09.444Z,1018.11
2022-10-09T05:51:09.464Z,1018.21
2022-10-09T06:01:09.914Z,1018.24
2022-10-09T06:11:09.802Z,1018.30
2022-10-09T06:21:10.143Z,1018.28
2022-10-09T06:31:10.228Z,1018.32
2022-10-09T06:41:10.290Z,1018.43
2022-10-09T06:51:10.517Z,1018.45
2022-10-09T07:01:10.905Z,1018.54
2022-10-09T07:11:10.984Z,1018.51
2022-10-09T07:21:11.295Z,1018.50
2022-10-09T07:31:11.386Z,1018.50
2022-10-09T07:41:11.544Z,1018.42
2022-10-09T07:51:11.572Z,1018.40
2022-10-09T08:01:15.016Z,1018.42
2022-10-09T08:11:12.881Z,1018.44
2022-10-09T08:21:12.109Z,1018.41
2022-10-09T08:31:12.369Z,1018.43
2022-10-09T08:41:12.406Z,1018.45
2022-10-09T08:51:12.629Z,1018.34
2022-10-09T09:01:12.890Z,1018.33
2022-10-09T09:11:13.097Z,1018.39
2022-10-09T09:21:13.399Z,1018.34
2022-10-09T09:31:13.534Z,1018.27
2022-10-09T09:41:13.655Z,1018.17
2022-10-09T09:51:27.954Z,1018.16
2022-10-09T10:01:14.971Z,1018.09
2022-10-09T10:11:14.278Z,1018.10
2022-10-09T10:21:14.125Z,1018.09
2022-10-09T10:31:14.444Z,1018.12
2022-10-09T10:41:14.458Z,1018.05
2022-10-09T10:51:14.766Z,1017.99
2022-10-09T11:01:14.912Z,1018.02
2022-10-09T11:11:15.017Z,1018.05
2022-10-09T11:21:15.037Z,1018.00
2022-10-09T11:31:15.379Z,1017.97
2022-10-09T11:41:15.394Z,1017.87
2022-10-09T11:51:15.712Z,1017.80
2022-10-09T12:01:15.817Z,1017.73
2022-10-09T12:11:15.964Z,1017.60
2022-10-09T12:21:15.997Z,1017.35
2022-10-09T12:31:16.336Z,1017.30
2022-10-09T12:41:20.142Z,1017.22
2022-10-09T12:51:16.543Z,1017.16
2022-10-09T13:01:16.932Z,1017.01
2022-10-09T13:11:17.017Z,1016.92
2022-10-09T13:21:17.294Z,1016.88
2022-10-09T13:31:17.357Z,1016.84
2022-10-09T13:41:17.430Z,1016.64
2022-10-09T13:51:17.659Z,1016.48
2022-10-09T14:01:18.053Z,1016.38
2022-10-09T14:11:17.979Z,1016.28
2022-10-09T14:21:18.337Z,1016.25
2022-10-09T14:31:18.359Z,1016.08
2022-10-09T14:41:18.726Z,1015.96
2022-10-09T14:51:18.756Z,1015.90
2022-10-09T15:01:19.046Z,1015.85
2022-10-09T15:11:19.057Z,1015.83
2022-10-09T15:21:19.401Z,1015.70
2022-10-09T15:31:19.424Z,1015.68
2022-10-09T15:41:19.736Z,1015.69
2022-10-09T15:51:19.766Z,1015.70
2022-10-09T16:01:20.114Z,1015.69
2022-10-09T16:11:23.260Z,1015.70
2022-10-09T16:21:21.448Z,1015.66
2022-10-09T16:31:20.723Z,1015.72
2022-10-09T16:41:20.949Z,1015.71
2022-10-09T16:51:21.267Z,1015.71
2022-10-09T17:01:21.316Z,1015.79
2022-10-09T17:11:21.807Z,1015.83
2022-10-09T17:21:21.867Z,1015.92
2022-10-09T17:31:21.937Z,1015.92
2022-10-09T17:41:21.988Z,1015.96
2022-10-09T17:51:22.326Z,1016.04
2022-10-09T18:01:22.424Z,1016.03
2022-10-09T18:11:22.750Z,1016.04
2022-10-09T18:21:22.823Z,1015.94
2022-10-09T18:31:22.873Z,1015.93
2022-10-09T18:41:27.074Z,1015.85
2022-10-09T18:51:23.417Z,1015.78
2022-10-09T19:01:23.695Z,1015.80
2022-10-09T19:11:23.609Z,1015.73
2022-10-09T19:21:23.898Z,1015.70
2022-10-09T19:31:24.035Z,1015.70
2022-10-09T19:41:24.355Z,1015.66
2022-10-09T19:51:24.503Z,1015.58
2022-10-09T20:01:24.524Z,1015.64
2022-10-09T20:11:24.571Z,1015.59
2022-10-09T20:21:24.839Z,1015.59
2022-10-09T20:31:25.059Z,1015.59
2022-10-09T20:41:25.388Z,1015.64
2022-10-09T20:51:25.409Z,1015.64
2022-10-09T21:01:25.806Z,1015.67
2022-10-09T21:11:25.864Z,1015.68
2022-10-09T21:21:26.194Z,1015.74
2022-10-09T21:31:26.221Z,1015.76
2022-10-09T21:41:26.553Z,1015.83
2022-10-09T21:51:26.583Z,1015.92
2022-10-09T22:01:26.939Z,1015.97
2022-10-09T22:11:27.005Z,1016.01
2022-10-09T22:21:27.142Z,1016.00
2022-10-09T22:31:27.167Z,1016.02
2022-10-09T22:41:27.501Z,1016.00
2022-10-09T22:51:27.525Z,1015.96
2022-10-09T23:01:27.906Z,1015.98
2022-10-09T23:11:27.942Z,1015.94
2022-10-09T23:21:28.304Z,1016.02
2022-10-09T23:31:28.350Z,1016.06
2022-10-09T23:41:28.642Z,1016.06
2022-10-09T23:51:28.660Z,1016.03
